Millbrook, Alabama
Current Conditions -  °F | °C
As of 8:58 PM on Sunday 23 Nov 2014 (Local Time) from KMXF Reporting Station
Clear Clear  
Wind Chill: 62°   Ceiling: Unl
Heat Index: 62°   Visibility: 10mi
Dew Point: 60°   Wind: 8mph
Humidity: 91%   Direction: 170°S
Pressure: 29.72"   Gusts: NA
Location:  32.48°N, 86.36°W
Report Text: KMXF 240258Z AUTO 17007KT 10SM CLR 17/15 A2972 RMK AO2 SLP066 T01670153 52013
Loading
Personal Weather Stations






























Interactive Weather Map New forecast layout! Learn more

10-Day Weather Forecast

Advertisements
Track Severe Weather on mobile